sensor_id;sensor_type;location;lat;lon;timestamp;P1;durP1;ratioP1;P2;durP2;ratioP2
60612;SDS011;46443;59.792;17.626;2023-02-17T00:00:34;24.35;;;8.23;;
60612;SDS011;46443;59.792;17.626;2023-02-17T00:03:00;22.07;;;6.80;;
60612;SDS011;46443;59.792;17.626;2023-02-17T00:05:26;16.60;;;6.97;;
60612;SDS011;46443;59.792;17.626;2023-02-17T00:07:53;16.47;;;6.73;;
60612;SDS011;46443;59.792;17.626;2023-02-17T00:10:19;15.10;;;6.63;;
60612;SDS011;46443;59.792;17.626;2023-02-17T00:12:45;15.60;;;7.27;;
60612;SDS011;46443;59.792;17.626;2023-02-17T00:15:11;20.80;;;6.53;;
60612;SDS011;46443;59.792;17.626;2023-02-17T00:17:37;15.02;;;6.82;;
60612;SDS011;46443;59.792;17.626;2023-02-17T00:20:03;17.25;;;6.63;;
60612;SDS011;46443;59.792;17.626;2023-02-17T00:22:29;14.17;;;6.03;;
60612;SDS011;46443;59.792;17.626;2023-02-17T00:24:55;20.02;;;6.70;;
60612;SDS011;46443;59.792;17.626;2023-02-17T00:27:21;17.92;;;6.97;;
60612;SDS011;46443;59.792;17.626;2023-02-17T00:29:47;16.50;;;6.85;;
60612;SDS011;46443;59.792;17.626;2023-02-17T00:32:13;12.27;;;5.40;;
60612;SDS011;46443;59.792;17.626;2023-02-17T00:34:40;13.85;;;6.82;;
60612;SDS011;46443;59.792;17.626;2023-02-17T00:37:06;11.13;;;5.43;;
60612;SDS011;46443;59.792;17.626;2023-02-17T00:39:32;14.98;;;6.10;;
60612;SDS011;46443;59.792;17.626;2023-02-17T00:41:58;20.05;;;6.45;;
60612;SDS011;46443;59.792;17.626;2023-02-17T00:44:24;15.30;;;6.45;;
60612;SDS011;46443;59.792;17.626;2023-02-17T00:46:50;11.48;;;6.15;;
60612;SDS011;46443;59.792;17.626;2023-02-17T00:49:17;15.73;;;6.95;;
60612;SDS011;46443;59.792;17.626;2023-02-17T00:51:44;22.67;;;8.30;;
60612;SDS011;46443;59.792;17.626;2023-02-17T00:54:10;23.33;;;8.90;;
60612;SDS011;46443;59.792;17.626;2023-02-17T00:56:36;20.95;;;7.35;;
60612;SDS011;46443;59.792;17.626;2023-02-17T00:59:02;29.42;;;8.43;;
60612;SDS011;46443;59.792;17.626;2023-02-17T01:01:29;21.80;;;7.65;;
60612;SDS011;46443;59.792;17.626;2023-02-17T01:03:55;19.92;;;7.28;;
60612;SDS011;46443;59.792;17.626;2023-02-17T01:06:23;20.00;;;7.40;;
60612;SDS011;46443;59.792;17.626;2023-02-17T01:08:49;20.50;;;7.37;;
60612;SDS011;46443;59.792;17.626;2023-02-17T01:11:18;22.63;;;7.33;;
60612;SDS011;46443;59.792;17.626;2023-02-17T01:13:45;16.40;;;6.35;;
60612;SDS011;46443;59.792;17.626;2023-02-17T01:16:17;19.40;;;6.33;;
60612;SDS011;46443;59.792;17.626;2023-02-17T01:18:43;15.50;;;6.07;;
60612;SDS011;46443;59.792;17.626;2023-02-17T01:21:19;16.10;;;6.27;;
60612;SDS011;46443;59.792;17.626;2023-02-17T01:23:47;15.90;;;6.67;;
60612;SDS011;46443;59.792;17.626;2023-02-17T01:26:17;16.93;;;6.47;;
60612;SDS011;46443;59.792;17.626;2023-02-17T01:28:44;14.03;;;6.17;;
60612;SDS011;46443;59.792;17.626;2023-02-17T01:31:10;16.57;;;7.37;;
60612;SDS011;46443;59.792;17.626;2023-02-17T01:33:37;19.27;;;6.70;;
60612;SDS011;46443;59.792;17.626;2023-02-17T01:36:03;14.97;;;6.63;;
60612;SDS011;46443;59.792;17.626;2023-02-17T01:38:30;24.53;;;7.70;;
60612;SDS011;46443;59.792;17.626;2023-02-17T01:40:56;22.40;;;7.10;;
60612;SDS011;46443;59.792;17.626;2023-02-17T01:43:22;20.43;;;6.93;;
60612;SDS011;46443;59.792;17.626;2023-02-17T01:45:51;17.47;;;7.50;;
60612;SDS011;46443;59.792;17.626;2023-02-17T01:48:19;22.50;;;7.80;;
60612;SDS011;46443;59.792;17.626;2023-02-17T01:50:47;19.50;;;7.77;;
60612;SDS011;46443;59.792;17.626;2023-02-17T01:53:16;20.63;;;7.23;;
60612;SDS011;46443;59.792;17.626;2023-02-17T01:55:42;19.17;;;7.73;;
60612;SDS011;46443;59.792;17.626;2023-02-17T01:58:10;16.80;;;7.27;;
60612;SDS011;46443;59.792;17.626;2023-02-17T02:00:37;18.93;;;7.87;;
60612;SDS011;46443;59.792;17.626;2023-02-17T02:03:05;17.83;;;7.33;;
60612;SDS011;46443;59.792;17.626;2023-02-17T02:05:32;19.87;;;7.80;;
60612;SDS011;46443;59.792;17.626;2023-02-17T02:07:59;15.53;;;7.03;;
60612;SDS011;46443;59.792;17.626;2023-02-17T02:10:25;15.47;;;6.63;;
60612;SDS011;46443;59.792;17.626;2023-02-17T02:12:51;19.97;;;7.57;;
60612;SDS011;46443;59.792;17.626;2023-02-17T02:15:18;19.90;;;7.37;;
60612;SDS011;46443;59.792;17.626;2023-02-17T02:26:03;22.87;;;7.97;;
60612;SDS011;46443;59.792;17.626;2023-02-17T02:34:05;15.40;;;6.20;;
60612;SDS011;46443;59.792;17.626;2023-02-17T02:36:43;13.07;;;4.57;;
60612;SDS011;46443;59.792;17.626;2023-02-17T02:39:12;16.03;;;5.97;;
60612;SDS011;46443;59.792;17.626;2023-02-17T02:41:41;12.45;;;4.90;;
60612;SDS011;46443;59.792;17.626;2023-02-17T02:44:09;18.40;;;7.27;;
60612;SDS011;46443;59.792;17.626;2023-02-17T02:46:35;16.23;;;6.83;;
60612;SDS011;46443;59.792;17.626;2023-02-17T02:49:01;18.73;;;6.57;;
60612;SDS011;46443;59.792;17.626;2023-02-17T02:51:34;17.73;;;7.43;;
60612;SDS011;46443;59.792;17.626;2023-02-17T03:07:13;27.13;;;8.45;;
60612;SDS011;46443;59.792;17.626;2023-02-17T03:09:46;29.45;;;8.02;;
60612;SDS011;46443;59.792;17.626;2023-02-17T03:12:13;23.37;;;9.87;;
60612;SDS011;46443;59.792;17.626;2023-02-17T03:14:39;22.93;;;8.43;;
60612;SDS011;46443;59.792;17.626;2023-02-17T03:17:07;27.17;;;9.88;;
60612;SDS011;46443;59.792;17.626;2023-02-17T03:19:33;31.43;;;9.97;;
60612;SDS011;46443;59.792;17.626;2023-02-17T03:22:07;34.67;;;9.63;;
60612;SDS011;46443;59.792;17.626;2023-02-17T03:24:34;27.67;;;10.25;;
60612;SDS011;46443;59.792;17.626;2023-02-17T03:27:00;36.77;;;10.73;;
60612;SDS011;46443;59.792;17.626;2023-02-17T03:29:26;40.80;;;11.73;;
60612;SDS011;46443;59.792;17.626;2023-02-17T03:31:52;39.90;;;11.77;;
60612;SDS011;46443;59.792;17.626;2023-02-17T03:34:19;27.25;;;10.30;;
60612;SDS011;46443;59.792;17.626;2023-02-17T03:36:45;29.33;;;10.10;;
60612;SDS011;46443;59.792;17.626;2023-02-17T03:39:11;35.27;;;9.37;;
60612;SDS011;46443;59.792;17.626;2023-02-17T03:41:37;32.07;;;9.50;;
60612;SDS011;46443;59.792;17.626;2023-02-17T03:44:03;31.37;;;10.53;;
60612;SDS011;46443;59.792;17.626;2023-02-17T03:46:29;28.70;;;11.03;;
60612;SDS011;46443;59.792;17.626;2023-02-17T03:48:55;35.83;;;10.67;;
60612;SDS011;46443;59.792;17.626;2023-02-17T03:51:22;29.80;;;11.83;;
60612;SDS011;46443;59.792;17.626;2023-02-17T03:53:49;30.27;;;9.43;;
60612;SDS011;46443;59.792;17.626;2023-02-17T03:56:15;37.73;;;10.77;;
60612;SDS011;46443;59.792;17.626;2023-02-17T03:58:42;29.57;;;10.20;;
60612;SDS011;46443;59.792;17.626;2023-02-17T04:01:09;32.13;;;9.17;;
60612;SDS011;46443;59.792;17.626;2023-02-17T04:03:36;34.13;;;10.23;;
60612;SDS011;46443;59.792;17.626;2023-02-17T04:06:02;31.23;;;10.40;;
60612;SDS011;46443;59.792;17.626;2023-02-17T04:08:29;30.33;;;10.13;;
60612;SDS011;46443;59.792;17.626;2023-02-17T04:10:56;33.50;;;11.57;;
60612;SDS011;46443;59.792;17.626;2023-02-17T04:13:23;42.13;;;10.83;;
60612;SDS011;46443;59.792;17.626;2023-02-17T04:15:49;36.80;;;9.90;;
60612;SDS011;46443;59.792;17.626;2023-02-17T04:18:16;30.23;;;9.87;;
60612;SDS011;46443;59.792;17.626;2023-02-17T04:20:42;32.00;;;9.23;;
60612;SDS011;46443;59.792;17.626;2023-02-17T04:23:09;22.23;;;9.53;;
60612;SDS011;46443;59.792;17.626;2023-02-17T04:25:36;33.27;;;9.43;;
60612;SDS011;46443;59.792;17.626;2023-02-17T04:28:03;27.87;;;9.17;;
60612;SDS011;46443;59.792;17.626;2023-02-17T04:30:29;24.97;;;8.57;;
60612;SDS011;46443;59.792;17.626;2023-02-17T04:32:55;26.63;;;8.03;;
60612;SDS011;46443;59.792;17.626;2023-02-17T04:35:21;30.33;;;9.47;;
60612;SDS011;46443;59.792;17.626;2023-02-17T04:37:47;28.93;;;9.30;;
60612;SDS011;46443;59.792;17.626;2023-02-17T04:40:13;29.70;;;8.70;;
60612;SDS011;46443;59.792;17.626;2023-02-17T04:42:40;30.23;;;9.17;;
60612;SDS011;46443;59.792;17.626;2023-02-17T04:45:06;29.80;;;9.07;;
60612;SDS011;46443;59.792;17.626;2023-02-17T04:47:32;33.07;;;8.60;;
60612;SDS011;46443;59.792;17.626;2023-02-17T04:49:58;30.70;;;10.00;;
60612;SDS011;46443;59.792;17.626;2023-02-17T04:52:24;27.60;;;8.57;;
60612;SDS011;46443;59.792;17.626;2023-02-17T04:54:50;31.30;;;9.87;;
60612;SDS011;46443;59.792;17.626;2023-02-17T04:57:16;25.00;;;9.30;;
60612;SDS011;46443;59.792;17.626;2023-02-17T04:59:42;20.67;;;6.82;;
60612;SDS011;46443;59.792;17.626;2023-02-17T05:02:09;27.27;;;8.37;;
60612;SDS011;46443;59.792;17.626;2023-02-17T05:04:35;29.73;;;8.37;;
60612;SDS011;46443;59.792;17.626;2023-02-17T05:07:01;19.37;;;7.03;;
60612;SDS011;46443;59.792;17.626;2023-02-17T05:09:27;19.33;;;7.80;;
60612;SDS011;46443;59.792;17.626;2023-02-17T05:11:53;29.57;;;7.77;;
60612;SDS011;46443;59.792;17.626;2023-02-17T05:14:19;19.83;;;7.77;;
60612;SDS011;46443;59.792;17.626;2023-02-17T05:16:45;24.10;;;6.37;;
60612;SDS011;46443;59.792;17.626;2023-02-17T05:19:11;17.03;;;6.07;;
60612;SDS011;46443;59.792;17.626;2023-02-17T05:21:37;14.83;;;5.90;;
60612;SDS011;46443;59.792;17.626;2023-02-17T05:24:03;17.40;;;5.33;;
60612;SDS011;46443;59.792;17.626;2023-02-17T05:26:29;11.67;;;5.13;;
60612;SDS011;46443;59.792;17.626;2023-02-17T05:28:55;13.40;;;5.53;;
60612;SDS011;46443;59.792;17.626;2023-02-17T05:31:22;13.73;;;5.00;;
60612;SDS011;46443;59.792;17.626;2023-02-17T05:33:48;13.80;;;5.20;;
60612;SDS011;46443;59.792;17.626;2023-02-17T05:36:14;12.20;;;5.17;;
60612;SDS011;46443;59.792;17.626;2023-02-17T05:38:41;11.43;;;5.47;;
60612;SDS011;46443;59.792;17.626;2023-02-17T05:41:09;15.00;;;6.30;;
60612;SDS011;46443;59.792;17.626;2023-02-17T05:43:35;15.30;;;6.27;;
60612;SDS011;46443;59.792;17.626;2023-02-17T05:46:01;14.97;;;6.13;;
60612;SDS011;46443;59.792;17.626;2023-02-17T05:48:27;18.83;;;8.43;;
60612;SDS011;46443;59.792;17.626;2023-02-17T05:50:53;19.70;;;7.63;;
60612;SDS011;46443;59.792;17.626;2023-02-17T05:53:20;22.57;;;8.10;;
60612;SDS011;46443;59.792;17.626;2023-02-17T05:55:46;24.70;;;9.07;;
60612;SDS011;46443;59.792;17.626;2023-02-17T05:58:12;29.63;;;9.47;;
60612;SDS011;46443;59.792;17.626;2023-02-17T06:00:38;25.83;;;8.53;;
60612;SDS011;46443;59.792;17.626;2023-02-17T06:03:04;27.27;;;9.63;;
60612;SDS011;46443;59.792;17.626;2023-02-17T06:05:30;25.13;;;9.20;;
60612;SDS011;46443;59.792;17.626;2023-02-17T06:07:56;30.53;;;9.23;;
60612;SDS011;46443;59.792;17.626;2023-02-17T06:10:22;27.93;;;10.27;;
60612;SDS011;46443;59.792;17.626;2023-02-17T06:12:48;38.80;;;10.40;;
60612;SDS011;46443;59.792;17.626;2023-02-17T06:15:14;37.80;;;12.03;;
60612;SDS011;46443;59.792;17.626;2023-02-17T06:17:40;41.13;;;12.10;;
60612;SDS011;46443;59.792;17.626;2023-02-17T06:20:07;38.10;;;11.43;;
60612;SDS011;46443;59.792;17.626;2023-02-17T06:22:34;37.57;;;11.13;;
60612;SDS011;46443;59.792;17.626;2023-02-17T06:25:00;35.17;;;10.67;;
60612;SDS011;46443;59.792;17.626;2023-02-17T06:27:26;37.43;;;10.33;;
60612;SDS011;46443;59.792;17.626;2023-02-17T06:29:52;37.43;;;12.53;;
60612;SDS011;46443;59.792;17.626;2023-02-17T06:32:18;44.43;;;12.77;;
60612;SDS011;46443;59.792;17.626;2023-02-17T06:34:44;38.03;;;11.13;;
60612;SDS011;46443;59.792;17.626;2023-02-17T06:37:10;39.07;;;11.60;;
60612;SDS011;46443;59.792;17.626;2023-02-17T06:39:36;42.50;;;12.80;;
60612;SDS011;46443;59.792;17.626;2023-02-17T06:42:02;39.20;;;11.57;;
60612;SDS011;46443;59.792;17.626;2023-02-17T06:44:28;43.03;;;12.60;;
60612;SDS011;46443;59.792;17.626;2023-02-17T06:46:55;46.67;;;12.67;;
60612;SDS011;46443;59.792;17.626;2023-02-17T06:49:23;44.50;;;12.93;;
60612;SDS011;46443;59.792;17.626;2023-02-17T06:51:49;52.10;;;13.60;;
60612;SDS011;46443;59.792;17.626;2023-02-17T06:54:15;40.80;;;13.73;;
60612;SDS011;46443;59.792;17.626;2023-02-17T06:56:41;55.47;;;14.60;;
60612;SDS011;46443;59.792;17.626;2023-02-17T06:59:07;55.67;;;13.30;;
60612;SDS011;46443;59.792;17.626;2023-02-17T07:01:34;48.93;;;14.47;;
60612;SDS011;46443;59.792;17.626;2023-02-17T07:04:00;48.80;;;13.63;;
60612;SDS011;46443;59.792;17.626;2023-02-17T07:06:26;54.03;;;14.93;;
60612;SDS011;46443;59.792;17.626;2023-02-17T07:08:52;53.70;;;14.37;;
60612;SDS011;46443;59.792;17.626;2023-02-17T07:11:18;53.47;;;13.27;;
60612;SDS011;46443;59.792;17.626;2023-02-17T07:13:44;54.80;;;14.77;;
60612;SDS011;46443;59.792;17.626;2023-02-17T07:16:11;58.53;;;16.77;;
60612;SDS011;46443;59.792;17.626;2023-02-17T07:18:38;60.43;;;13.90;;
60612;SDS011;46443;59.792;17.626;2023-02-17T07:21:05;62.77;;;17.27;;
60612;SDS011;46443;59.792;17.626;2023-02-17T07:23:31;51.87;;;14.57;;
60612;SDS011;46443;59.792;17.626;2023-02-17T07:26:01;57.63;;;14.93;;
60612;SDS011;46443;59.792;17.626;2023-02-17T07:28:27;53.17;;;15.63;;
60612;SDS011;46443;59.792;17.626;2023-02-17T07:30:53;70.00;;;16.20;;
60612;SDS011;46443;59.792;17.626;2023-02-17T07:33:19;69.77;;;17.20;;
60612;SDS011;46443;59.792;17.626;2023-02-17T07:35:45;70.10;;;16.57;;
60612;SDS011;46443;59.792;17.626;2023-02-17T07:38:12;71.77;;;17.37;;
60612;SDS011;46443;59.792;17.626;2023-02-17T07:40:38;61.17;;;17.20;;
60612;SDS011;46443;59.792;17.626;2023-02-17T07:43:04;72.53;;;17.53;;
60612;SDS011;46443;59.792;17.626;2023-02-17T07:45:30;84.03;;;18.70;;
60612;SDS011;46443;59.792;17.626;2023-02-17T07:47:57;86.63;;;18.57;;
60612;SDS011;46443;59.792;17.626;2023-02-17T07:50:23;72.93;;;17.37;;
60612;SDS011;46443;59.792;17.626;2023-02-17T07:52:49;86.30;;;17.40;;
60612;SDS011;46443;59.792;17.626;2023-02-17T07:55:15;73.30;;;18.03;;
60612;SDS011;46443;59.792;17.626;2023-02-17T07:57:41;82.00;;;17.80;;
60612;SDS011;46443;59.792;17.626;2023-02-17T08:00:08;71.73;;;17.00;;
60612;SDS011;46443;59.792;17.626;2023-02-17T08:02:34;77.33;;;17.17;;
60612;SDS011;46443;59.792;17.626;2023-02-17T08:05:00;76.63;;;16.00;;
60612;SDS011;46443;59.792;17.626;2023-02-17T08:07:26;73.37;;;15.90;;
60612;SDS011;46443;59.792;17.626;2023-02-17T08:09:52;63.17;;;16.37;;
60612;SDS011;46443;59.792;17.626;2023-02-17T08:12:37;67.17;;;16.73;;
60612;SDS011;46443;59.792;17.626;2023-02-17T08:15:21;57.63;;;14.53;;
60612;SDS011;46443;59.792;17.626;2023-02-17T08:17:47;76.30;;;17.63;;
60612;SDS011;46443;59.792;17.626;2023-02-17T08:20:13;77.53;;;17.73;;
60612;SDS011;46443;59.792;17.626;2023-02-17T08:22:39;86.77;;;20.40;;
60612;SDS011;46443;59.792;17.626;2023-02-17T08:25:06;101.73;;;21.97;;
60612;SDS011;46443;59.792;17.626;2023-02-17T08:27:32;78.67;;;18.03;;
60612;SDS011;46443;59.792;17.626;2023-02-17T08:29:58;86.47;;;18.87;;
60612;SDS011;46443;59.792;17.626;2023-02-17T08:32:24;95.57;;;20.93;;
60612;SDS011;46443;59.792;17.626;2023-02-17T08:34:53;90.03;;;20.17;;
60612;SDS011;46443;59.792;17.626;2023-02-17T08:37:19;73.38;;;19.38;;
60612;SDS011;46443;59.792;17.626;2023-02-17T08:39:45;95.67;;;19.23;;
60612;SDS011;46443;59.792;17.626;2023-02-17T08:42:11;76.90;;;18.13;;
60612;SDS011;46443;59.792;17.626;2023-02-17T08:44:38;78.70;;;18.50;;
60612;SDS011;46443;59.792;17.626;2023-02-17T08:47:04;84.43;;;21.73;;
60612;SDS011;46443;59.792;17.626;2023-02-17T08:49:31;81.37;;;20.47;;
60612;SDS011;46443;59.792;17.626;2023-02-17T08:51:58;79.77;;;17.97;;
60612;SDS011;46443;59.792;17.626;2023-02-17T08:54:24;77.97;;;19.37;;
60612;SDS011;46443;59.792;17.626;2023-02-17T08:56:50;73.43;;;19.30;;
60612;SDS011;46443;59.792;17.626;2023-02-17T08:59:16;81.27;;;21.40;;
60612;SDS011;46443;59.792;17.626;2023-02-17T09:01:42;87.77;;;20.33;;
60612;SDS011;46443;59.792;17.626;2023-02-17T09:04:09;88.43;;;21.33;;
60612;SDS011;46443;59.792;17.626;2023-02-17T09:09:02;87.73;;;20.10;;
60612;SDS011;46443;59.792;17.626;2023-02-17T09:11:29;84.43;;;20.60;;
60612;SDS011;46443;59.792;17.626;2023-02-17T09:13:55;75.20;;;18.37;;
60612;SDS011;46443;59.792;17.626;2023-02-17T09:16:21;75.27;;;19.80;;
60612;SDS011;46443;59.792;17.626;2023-02-17T09:18:49;64.10;;;18.40;;
60612;SDS011;46443;59.792;17.626;2023-02-17T09:21:16;70.30;;;19.27;;
60612;SDS011;46443;59.792;17.626;2023-02-17T09:23:42;76.47;;;19.90;;
60612;SDS011;46443;59.792;17.626;2023-02-17T09:26:10;73.83;;;19.97;;
60612;SDS011;46443;59.792;17.626;2023-02-17T09:28:36;83.10;;;21.90;;
60612;SDS011;46443;59.792;17.626;2023-02-17T09:33:38;47.27;;;15.57;;
60612;SDS011;46443;59.792;17.626;2023-02-17T09:36:05;64.13;;;18.00;;
60612;SDS011;46443;59.792;17.626;2023-02-17T09:38:32;56.90;;;17.77;;
60612;SDS011;46443;59.792;17.626;2023-02-17T09:41:44;54.37;;;16.00;;
60612;SDS011;46443;59.792;17.626;2023-02-17T09:43:44;41.87;;;14.93;;
60612;SDS011;46443;59.792;17.626;2023-02-17T09:46:12;48.73;;;15.60;;
60612;SDS011;46443;59.792;17.626;2023-02-17T09:48:40;47.13;;;15.88;;
60612;SDS011;46443;59.792;17.626;2023-02-17T09:53:36;42.50;;;14.43;;
60612;SDS011;46443;59.792;17.626;2023-02-17T09:56:04;38.03;;;13.13;;
60612;SDS011;46443;59.792;17.626;2023-02-17T09:58:35;42.75;;;13.52;;
60612;SDS011;46443;59.792;17.626;2023-02-17T10:01:03;29.20;;;12.33;;
60612;SDS011;46443;59.792;17.626;2023-02-17T10:03:52;29.53;;;11.47;;
60612;SDS011;46443;59.792;17.626;2023-02-17T10:06:27;26.93;;;10.30;;
60612;SDS011;46443;59.792;17.626;2023-02-17T10:08:56;23.53;;;10.03;;
60612;SDS011;46443;59.792;17.626;2023-02-17T10:11:34;23.80;;;10.88;;
60612;SDS011;46443;59.792;17.626;2023-02-17T10:14:14;22.53;;;9.73;;
60612;SDS011;46443;59.792;17.626;2023-02-17T10:16:50;17.58;;;8.50;;
60612;SDS011;46443;59.792;17.626;2023-02-17T10:19:20;22.03;;;8.53;;
60612;SDS011;46443;59.792;17.626;2023-02-17T10:24:52;25.93;;;9.40;;
60612;SDS011;46443;59.792;17.626;2023-02-17T10:27:29;18.70;;;8.40;;
60612;SDS011;46443;59.792;17.626;2023-02-17T10:30:08;24.47;;;9.57;;
60612;SDS011;46443;59.792;17.626;2023-02-17T10:35:15;19.92;;;9.20;;
60612;SDS011;46443;59.792;17.626;2023-02-17T10:40:13;20.37;;;8.60;;
60612;SDS011;46443;59.792;17.626;2023-02-17T10:42:40;16.53;;;7.57;;
60612;SDS011;46443;59.792;17.626;2023-02-17T10:47:34;22.43;;;9.33;;
60612;SDS011;46443;59.792;17.626;2023-02-17T10:50:00;20.50;;;8.90;;
60612;SDS011;46443;59.792;17.626;2023-02-17T10:52:37;20.50;;;8.07;;
60612;SDS011;46443;59.792;17.626;2023-02-17T10:55:05;17.57;;;7.27;;
60612;SDS011;46443;59.792;17.626;2023-02-17T10:57:34;21.08;;;8.23;;
60612;SDS011;46443;59.792;17.626;2023-02-17T11:00:02;12.93;;;6.73;;
60612;SDS011;46443;59.792;17.626;2023-02-17T11:02:36;20.00;;;7.83;;
60612;SDS011;46443;59.792;17.626;2023-02-17T11:05:05;13.13;;;6.53;;
60612;SDS011;46443;59.792;17.626;2023-02-17T11:07:32;19.13;;;7.67;;
60612;SDS011;46443;59.792;17.626;2023-02-17T11:10:15;19.67;;;7.40;;
60612;SDS011;46443;59.792;17.626;2023-02-17T11:12:44;17.37;;;6.60;;
60612;SDS011;46443;59.792;17.626;2023-02-17T11:15:14;15.77;;;6.57;;
60612;SDS011;46443;59.792;17.626;2023-02-17T11:17:40;15.57;;;6.77;;
60612;SDS011;46443;59.792;17.626;2023-02-17T11:22:44;16.70;;;6.83;;
60612;SDS011;46443;59.792;17.626;2023-02-17T11:25:21;13.90;;;6.43;;
60612;SDS011;46443;59.792;17.626;2023-02-17T11:27:55;12.20;;;6.17;;
60612;SDS011;46443;59.792;17.626;2023-02-17T11:30:22;16.03;;;7.13;;
60612;SDS011;46443;59.792;17.626;2023-02-17T11:32:48;13.10;;;6.53;;
60612;SDS011;46443;59.792;17.626;2023-02-17T11:38:11;14.33;;;6.80;;
60612;SDS011;46443;59.792;17.626;2023-02-17T11:40:38;14.97;;;6.67;;
60612;SDS011;46443;59.792;17.626;2023-02-17T11:43:04;21.10;;;8.50;;
60612;SDS011;46443;59.792;17.626;2023-02-17T11:45:53;14.13;;;6.73;;
60612;SDS011;46443;59.792;17.626;2023-02-17T11:55:53;14.40;;;6.27;;
60612;SDS011;46443;59.792;17.626;2023-02-17T12:09:06;16.63;;;6.73;;
60612;SDS011;46443;59.792;17.626;2023-02-17T12:11:41;15.10;;;6.37;;
60612;SDS011;46443;59.792;17.626;2023-02-17T12:14:13;17.90;;;7.13;;
60612;SDS011;46443;59.792;17.626;2023-02-17T12:17:01;14.97;;;6.10;;
60612;SDS011;46443;59.792;17.626;2023-02-17T12:19:37;13.63;;;5.40;;
60612;SDS011;46443;59.792;17.626;2023-02-17T12:24:52;15.90;;;7.80;;
60612;SDS011;46443;59.792;17.626;2023-02-17T12:35:38;16.83;;;7.60;;
60612;SDS011;46443;59.792;17.626;2023-02-17T12:38:00;20.05;;;8.52;;
60612;SDS011;46443;59.792;17.626;2023-02-17T12:40:33;16.67;;;7.63;;
60612;SDS011;46443;59.792;17.626;2023-02-17T12:43:23;15.77;;;7.20;;
60612;SDS011;46443;59.792;17.626;2023-02-17T12:45:50;20.20;;;7.95;;
60612;SDS011;46443;59.792;17.626;2023-02-17T12:48:21;19.57;;;8.10;;
60612;SDS011;46443;59.792;17.626;2023-02-17T12:53:16;15.73;;;7.53;;
60612;SDS011;46443;59.792;17.626;2023-02-17T12:55:49;19.23;;;7.97;;
60612;SDS011;46443;59.792;17.626;2023-02-17T12:58:17;18.00;;;8.10;;
60612;SDS011;46443;59.792;17.626;2023-02-17T13:00:46;18.87;;;8.17;;
60612;SDS011;46443;59.792;17.626;2023-02-17T13:03:12;21.73;;;8.70;;
60612;SDS011;46443;59.792;17.626;2023-02-17T13:10:34;21.80;;;8.97;;
60612;SDS011;46443;59.792;17.626;2023-02-17T13:13:06;26.93;;;10.10;;
60612;SDS011;46443;59.792;17.626;2023-02-17T13:15:33;24.67;;;10.63;;
60612;SDS011;46443;59.792;17.626;2023-02-17T13:18:04;23.27;;;10.87;;
60612;SDS011;46443;59.792;17.626;2023-02-17T13:20:41;24.20;;;9.37;;
60612;SDS011;46443;59.792;17.626;2023-02-17T13:23:13;28.10;;;9.90;;
60612;SDS011;46443;59.792;17.626;2023-02-17T13:26:00;25.80;;;9.97;;
60612;SDS011;46443;59.792;17.626;2023-02-17T13:28:33;23.17;;;9.43;;
60612;SDS011;46443;59.792;17.626;2023-02-17T13:31:07;20.80;;;8.17;;
60612;SDS011;46443;59.792;17.626;2023-02-17T13:33:38;31.67;;;10.97;;
60612;SDS011;46443;59.792;17.626;2023-02-17T13:36:12;25.53;;;10.93;;
60612;SDS011;46443;59.792;17.626;2023-02-17T13:38:38;25.53;;;9.43;;
60612;SDS011;46443;59.792;17.626;2023-02-17T13:41:05;27.67;;;10.80;;
60612;SDS011;46443;59.792;17.626;2023-02-17T13:43:39;32.23;;;12.97;;
60612;SDS011;46443;59.792;17.626;2023-02-17T13:46:05;36.90;;;13.77;;
60612;SDS011;46443;59.792;17.626;2023-02-17T13:48:32;31.30;;;12.27;;
60612;SDS011;46443;59.792;17.626;2023-02-17T13:51:03;29.57;;;11.83;;
60612;SDS011;46443;59.792;17.626;2023-02-17T13:56:02;42.85;;;15.93;;
60612;SDS011;46443;59.792;17.626;2023-02-17T13:58:33;36.63;;;13.27;;
60612;SDS011;46443;59.792;17.626;2023-02-17T14:00:59;38.57;;;14.13;;
60612;SDS011;46443;59.792;17.626;2023-02-17T14:06:04;40.70;;;15.60;;
60612;SDS011;46443;59.792;17.626;2023-02-17T14:08:38;42.87;;;16.47;;
60612;SDS011;46443;59.792;17.626;2023-02-17T14:11:23;42.50;;;16.63;;
60612;SDS011;46443;59.792;17.626;2023-02-17T14:13:51;43.63;;;15.67;;
60612;SDS011;46443;59.792;17.626;2023-02-17T14:16:31;40.20;;;15.33;;
60612;SDS011;46443;59.792;17.626;2023-02-17T14:21:24;41.83;;;16.03;;
60612;SDS011;46443;59.792;17.626;2023-02-17T14:23:52;48.73;;;18.47;;
60612;SDS011;46443;59.792;17.626;2023-02-17T14:28:57;48.97;;;15.87;;
60612;SDS011;46443;59.792;17.626;2023-02-17T14:31:24;48.43;;;16.60;;
60612;SDS011;46443;59.792;17.626;2023-02-17T14:33:57;51.33;;;18.53;;
60612;SDS011;46443;59.792;17.626;2023-02-17T14:36:32;46.93;;;17.53;;
60612;SDS011;46443;59.792;17.626;2023-02-17T14:38:59;49.07;;;15.70;;
60612;SDS011;46443;59.792;17.626;2023-02-17T14:41:25;46.13;;;16.03;;
60612;SDS011;46443;59.792;17.626;2023-02-17T14:43:52;44.63;;;15.93;;
60612;SDS011;46443;59.792;17.626;2023-02-17T14:46:18;38.57;;;14.87;;
60612;SDS011;46443;59.792;17.626;2023-02-17T14:48:45;39.80;;;13.93;;
60612;SDS011;46443;59.792;17.626;2023-02-17T14:51:19;36.30;;;14.07;;
60612;SDS011;46443;59.792;17.626;2023-02-17T14:53:45;35.63;;;13.73;;
60612;SDS011;46443;59.792;17.626;2023-02-17T14:56:14;41.03;;;12.83;;
60612;SDS011;46443;59.792;17.626;2023-02-17T14:58:40;31.05;;;12.48;;
60612;SDS011;46443;59.792;17.626;2023-02-17T15:01:08;28.67;;;10.70;;
60612;SDS011;46443;59.792;17.626;2023-02-17T15:03:34;33.20;;;12.47;;
60612;SDS011;46443;59.792;17.626;2023-02-17T15:06:00;28.33;;;11.13;;
60612;SDS011;46443;59.792;17.626;2023-02-17T15:08:31;31.00;;;10.33;;
60612;SDS011;46443;59.792;17.626;2023-02-17T15:10:57;32.87;;;10.17;;
60612;SDS011;46443;59.792;17.626;2023-02-17T15:13:24;20.77;;;8.17;;
60612;SDS011;46443;59.792;17.626;2023-02-17T15:15:50;23.33;;;9.10;;
60612;SDS011;46443;59.792;17.626;2023-02-17T15:18:17;24.63;;;9.90;;
60612;SDS011;46443;59.792;17.626;2023-02-17T15:20:44;23.83;;;9.47;;
60612;SDS011;46443;59.792;17.626;2023-02-17T15:23:20;19.87;;;8.30;;
60612;SDS011;46443;59.792;17.626;2023-02-17T15:25:47;23.00;;;9.30;;
60612;SDS011;46443;59.792;17.626;2023-02-17T15:28:14;19.30;;;8.23;;
60612;SDS011;46443;59.792;17.626;2023-02-17T15:30:41;20.57;;;8.00;;
60612;SDS011;46443;59.792;17.626;2023-02-17T15:33:10;20.87;;;8.07;;
60612;SDS011;46443;59.792;17.626;2023-02-17T15:35:36;22.33;;;8.70;;
60612;SDS011;46443;59.792;17.626;2023-02-17T15:38:03;19.60;;;8.00;;
60612;SDS011;46443;59.792;17.626;2023-02-17T15:40:29;20.93;;;7.77;;
60612;SDS011;46443;59.792;17.626;2023-02-17T15:42:55;19.97;;;8.17;;
60612;SDS011;46443;59.792;17.626;2023-02-17T15:45:24;19.03;;;8.13;;
60612;SDS011;46443;59.792;17.626;2023-02-17T15:47:50;22.50;;;9.70;;
60612;SDS011;46443;59.792;17.626;2023-02-17T15:50:18;21.07;;;9.93;;
60612;SDS011;46443;59.792;17.626;2023-02-17T15:52:46;22.90;;;8.18;;
60612;SDS011;46443;59.792;17.626;2023-02-17T15:55:13;21.97;;;9.40;;
60612;SDS011;46443;59.792;17.626;2023-02-17T15:57:39;20.50;;;8.17;;